This is the latest recevied weather packets stored in our database for station/object EA1EXV-11. If no packets are shown the sender has not sent any weather packets the latest 10 day(s).
| Time | Temp. | Humidity | Pressure | Rain* | Wind** | Luminosity | Snow |
|---|---|---|---|---|---|---|---|
| 1777564196 | 29.44° C | 33% | 1018.1 hPa | - | - | - | - |
| 1777563295 | 29.44° C | 33% | 1018 hPa | - | - | - | - |
| 1777562397 | 28.33° C | 34% | 1017.9 hPa | - | - | - | - |
| 1777561495 | 27.78° C | 34% | 1018.1 hPa | - | - | - | - |
| 1777560595 | 28.33° C | 34% | 1018.1 hPa | - | - | - | - |
| 1777559695 | 29.44° C | 34% | 1018 hPa | - | - | - | - |
| 1777558795 | 28.89° C | 34% | 1018 hPa | - | - | - | - |
| 1777557895 | 29.44° C | 35% | 1017.9 hPa | - | - | - | - |
| 1777556995 | 28.33° C | 37% | 1017.9 hPa | - | - | - | - |
| 1777556095 | 28.89° C | 37% | 1017.8 hPa | - | - | - | - |
| 1777555195 | 26.67° C | 40% | 1017.7 hPa | - | - | - | - |
| 1777554295 | 27.22° C | 41% | 1017.7 hPa | - | - | - | - |
| 1777553394 | 26.67° C | 43% | 1017.7 hPa | - | - | - | - |
| 1777552494 | 27.22° C | 45% | 1017.7 hPa | - | - | - | - |
| 1777551594 | 22.22° C | 50% | 1017.6 hPa | - | - | - | - |
| 1777550694 | 23.89° C | 50% | 1017.7 hPa | - | - | - | - |
| 1777549794 | 20.56° C | 54% | 1017.8 hPa | - | - | - | - |
| 1777548894 | 21.67° C | 54% | 1017.6 hPa | - | - | - | - |
| 1777547994 | 19.44° C | 56% | 1017.4 hPa | - | - | - | - |
| 1777547094 | 19.44° C | 56% | 1017.3 hPa | - | - | - | - |
| 1777546193 | 21.67° C | 55% | 1017.3 hPa | - | - | - | - |
| 1777545293 | 21.11° C | 58% | 1017.2 hPa | - | - | - | - |
| 1777544393 | 20.56° C | 61% | 1017.1 hPa | - | - | - | - |
| 1777543493 | 17.22° C | 63% | 1017.1 hPa | - | - | - | - |
| 1777542593 | 16.11° C | 64% | 1017 hPa | - | - | - | - |
* Rain since midnight (hover to see other rain measurements)
** Current wind speed in m/s (hover to see current wind gust speed)